VOE56DL LFPO-LIPX
Flight info
| Callsign | VOE56DL |
|---|---|
| Flight time | 1h 23m |
| Altitude | 37000 |
| Route | OKASI DCT OKEKO DCT MOU DCT MADIV DCT MOKIP DCT TUFTA/N0448F350 DCT GEVEA DCT ORSUD DCT BIBAN DCT TZO |
| Aircraft | A320/M-SDE3FGHIRWY/LB1 |
Departure
| Time | 2026-05-04 14:49 |
|---|---|
| Airport | Paris-Orly Airport (LFPO) |
Arrival
| Time | 2026-05-04 16:12 |
|---|---|
| Airport | Verona Villafranca Valerio Catullo Airport (LIPX) |
| Time | Latitude | Longitude | Altitude | Speed | Heading |
|---|---|---|---|---|---|
| 2026-05-04 14:11 | 48.72934 | 2.35686 | 292 ft | 0 kts | 104° |
| 2026-05-04 14:40 | 48.72937 | 2.35669 | 296 ft | 3 kts | 104° |
| 2026-05-04 14:40 | 48.72943 | 2.35634 | 296 ft | 3 kts | 104° |
| 2026-05-04 14:41 | 48.72948 | 2.35600 | 291 ft | 3 kts | 104° |
| 2026-05-04 14:41 | 48.72953 | 2.35572 | 291 ft | 3 kts | 108° |
| 2026-05-04 14:41 | 48.72973 | 2.35531 | 291 ft | 3 kts | 191° |
| 2026-05-04 14:42 | 48.72995 | 2.35541 | 294 ft | 0 kts | 201° |
| 2026-05-04 14:44 | 48.72974 | 2.35529 | 295 ft | 8 kts | 197° |
| 2026-05-04 14:44 | 48.72924 | 2.35506 | 294 ft | 7 kts | 220° |
| 2026-05-04 14:44 | 48.72900 | 2.35453 | 291 ft | 6 kts | 237° |
| 2026-05-04 14:44 | 48.72864 | 2.35430 | 292 ft | 7 kts | 179° |
| 2026-05-04 14:45 | 48.72799 | 2.35456 | 294 ft | 10 kts | 163° |
| 2026-05-04 14:45 | 48.72738 | 2.35482 | 294 ft | 8 kts | 166° |
| 2026-05-04 14:45 | 48.72686 | 2.35503 | 295 ft | 7 kts | 164° |
| 2026-05-04 14:45 | 48.72644 | 2.35522 | 295 ft | 6 kts | 163° |
| 2026-05-04 14:46 | 48.72603 | 2.35540 | 296 ft | 8 kts | 163° |
| 2026-05-04 14:46 | 48.72534 | 2.35570 | 291 ft | 13 kts | 163° |
| 2026-05-04 14:46 | 48.72437 | 2.35612 | 293 ft | 16 kts | 167° |
| 2026-05-04 14:46 | 48.72316 | 2.35644 | 291 ft | 18 kts | 188° |
| 2026-05-04 14:47 | 48.72200 | 2.35606 | 296 ft | 18 kts | 161° |
| 2026-05-04 14:47 | 48.72090 | 2.35662 | 295 ft | 14 kts | 158° |
| 2026-05-04 14:47 | 48.72025 | 2.35753 | 295 ft | 12 kts | 119° |
| 2026-05-04 14:47 | 48.71988 | 2.35861 | 296 ft | 11 kts | 116° |
| 2026-05-04 14:48 | 48.71965 | 2.35958 | 293 ft | 11 kts | 95° |
| 2026-05-04 14:48 | 48.72008 | 2.36215 | 297 ft | 49 kts | 76° |
| 2026-05-04 14:48 | 48.72166 | 2.37075 | 294 ft | 117 kts | 74° |
| 2026-05-04 14:48 | 48.72433 | 2.38531 | 358 ft | 162 kts | 75° |
| 2026-05-04 14:49 | 48.72732 | 2.40187 | 998 ft | 162 kts | 74° |
| 2026-05-04 14:49 | 48.73042 | 2.41845 | 1707 ft | 164 kts | 73° |
| 2026-05-04 14:49 | 48.73357 | 2.43521 | 2317 ft | 172 kts | 74° |
| 2026-05-04 14:49 | 48.73702 | 2.45364 | 2735 ft | 191 kts | 74° |
| 2026-05-04 14:50 | 48.74042 | 2.47419 | 3094 ft | 214 kts | 82° |
| 2026-05-04 14:50 | 48.74172 | 2.49792 | 3475 ft | 239 kts | 86° |
| 2026-05-04 14:50 | 48.74258 | 2.52377 | 3978 ft | 261 kts | 88° |
| 2026-05-04 14:50 | 48.74331 | 2.55115 | 4792 ft | 268 kts | 90° |
| 2026-05-04 14:51 | 48.73907 | 2.57860 | 5658 ft | 273 kts | 122° |
| 2026-05-04 14:51 | 48.72545 | 2.59826 | 6566 ft | 275 kts | 152° |
| 2026-05-04 14:51 | 48.70761 | 2.60857 | 7504 ft | 277 kts | 165° |
| 2026-05-04 14:51 | 48.68867 | 2.61492 | 8389 ft | 281 kts | 169° |
| 2026-05-04 14:52 | 48.66934 | 2.62036 | 9240 ft | 285 kts | 169° |
| 2026-05-04 14:52 | 48.64965 | 2.62569 | 10078 ft | 290 kts | 170° |
| 2026-05-04 14:52 | 48.62907 | 2.63115 | 10482 ft | 312 kts | 170° |
| 2026-05-04 14:52 | 48.60691 | 2.63707 | 10737 ft | 336 kts | 170° |
| 2026-05-04 14:53 | 48.58330 | 2.64341 | 11172 ft | 350 kts | 170° |
| 2026-05-04 14:53 | 48.55908 | 2.64998 | 11887 ft | 356 kts | 170° |
| 2026-05-04 14:53 | 48.53457 | 2.65663 | 12650 ft | 359 kts | 170° |
| 2026-05-04 14:53 | 48.50985 | 2.66334 | 13388 ft | 362 kts | 170° |
| 2026-05-04 14:54 | 48.48829 | 2.66917 | 14000 ft | 365 kts | 170° |
| 2026-05-04 14:54 | 48.46316 | 2.67594 | 14698 ft | 368 kts | 170° |
| 2026-05-04 14:54 | 48.43784 | 2.68276 | 15363 ft | 372 kts | 170° |
| 2026-05-04 14:54 | 48.41225 | 2.68966 | 16017 ft | 375 kts | 171° |
| 2026-05-04 14:55 | 48.38649 | 2.69661 | 16666 ft | 378 kts | 171° |
| 2026-05-04 14:55 | 48.36048 | 2.70360 | 17292 ft | 381 kts | 171° |
| 2026-05-04 14:55 | 48.33426 | 2.71063 | 17914 ft | 384 kts | 171° |
| 2026-05-04 14:55 | 48.30791 | 2.71769 | 18532 ft | 388 kts | 171° |
| 2026-05-04 14:56 | 48.28123 | 2.72481 | 19134 ft | 391 kts | 171° |
| 2026-05-04 14:56 | 48.25436 | 2.73198 | 19727 ft | 394 kts | 171° |
| 2026-05-04 14:56 | 48.22730 | 2.73919 | 20301 ft | 397 kts | 171° |
| 2026-05-04 14:56 | 48.20001 | 2.74649 | 20848 ft | 400 kts | 171° |
| 2026-05-04 14:57 | 48.17252 | 2.75389 | 21379 ft | 403 kts | 171° |
| 2026-05-04 14:57 | 48.14488 | 2.76130 | 21892 ft | 405 kts | 171° |
| 2026-05-04 14:57 | 48.11704 | 2.76872 | 22382 ft | 408 kts | 171° |
| 2026-05-04 14:57 | 48.08909 | 2.77698 | 22848 ft | 411 kts | 166° |
| 2026-05-04 14:58 | 48.06198 | 2.79119 | 23293 ft | 415 kts | 158° |
| 2026-05-04 14:58 | 48.03533 | 2.80826 | 23739 ft | 418 kts | 158° |
| 2026-05-04 14:58 | 48.00855 | 2.82533 | 24158 ft | 420 kts | 158° |
| 2026-05-04 14:58 | 47.98157 | 2.84246 | 24561 ft | 422 kts | 158° |
| 2026-05-04 14:59 | 47.95446 | 2.85967 | 24986 ft | 424 kts | 158° |
| 2026-05-04 14:59 | 47.92727 | 2.87694 | 25393 ft | 426 kts | 158° |
| 2026-05-04 14:59 | 47.87258 | 2.91161 | 26157 ft | 429 kts | 158° |
| 2026-05-04 15:00 | 47.84508 | 2.92902 | 26525 ft | 431 kts | 159° |
| 2026-05-04 15:00 | 47.81745 | 2.94652 | 26881 ft | 432 kts | 159° |
| 2026-05-04 15:00 | 47.79013 | 2.96380 | 27218 ft | 434 kts | 159° |
| 2026-05-04 15:01 | 47.73439 | 2.99890 | 27867 ft | 436 kts | 159° |
| 2026-05-04 15:01 | 47.70636 | 3.01651 | 28167 ft | 438 kts | 159° |
| 2026-05-04 15:01 | 47.67826 | 3.03413 | 28455 ft | 439 kts | 159° |
| 2026-05-04 15:01 | 47.65006 | 3.05177 | 28739 ft | 441 kts | 159° |
| 2026-05-04 15:02 | 47.62179 | 3.06944 | 29005 ft | 442 kts | 159° |
| 2026-05-04 15:02 | 47.59344 | 3.08718 | 29257 ft | 443 kts | 159° |
| 2026-05-04 15:02 | 47.56500 | 3.10496 | 29491 ft | 444 kts | 159° |
| 2026-05-04 15:02 | 47.53658 | 3.12272 | 29795 ft | 443 kts | 159° |
| 2026-05-04 15:03 | 47.50823 | 3.14046 | 30123 ft | 441 kts | 159° |
| 2026-05-04 15:03 | 47.47999 | 3.15810 | 30437 ft | 440 kts | 159° |
| 2026-05-04 15:03 | 47.45178 | 3.17565 | 30746 ft | 439 kts | 159° |
| 2026-05-04 15:03 | 47.42364 | 3.19311 | 31039 ft | 439 kts | 159° |
| 2026-05-04 15:04 | 47.39549 | 3.21051 | 31325 ft | 438 kts | 159° |
| 2026-05-04 15:04 | 47.36738 | 3.22786 | 31607 ft | 438 kts | 159° |
| 2026-05-04 15:04 | 47.33931 | 3.24521 | 31887 ft | 437 kts | 159° |
| 2026-05-04 15:04 | 47.31129 | 3.26254 | 32172 ft | 437 kts | 159° |
| 2026-05-04 15:05 | 47.28328 | 3.27986 | 32444 ft | 436 kts | 159° |
| 2026-05-04 15:05 | 47.25533 | 3.29711 | 32711 ft | 436 kts | 159° |
| 2026-05-04 15:05 | 47.22737 | 3.31434 | 32979 ft | 435 kts | 159° |
| 2026-05-04 15:05 | 47.19946 | 3.33152 | 33235 ft | 435 kts | 159° |
| 2026-05-04 15:06 | 47.17155 | 3.34870 | 33510 ft | 435 kts | 159° |
| 2026-05-04 15:06 | 47.14369 | 3.36580 | 33781 ft | 434 kts | 159° |
| 2026-05-04 15:06 | 47.11583 | 3.38287 | 34048 ft | 433 kts | 159° |
| 2026-05-04 15:07 | 47.06025 | 3.41694 | 34580 ft | 433 kts | 159° |
| 2026-05-04 15:07 | 47.03244 | 3.43394 | 34834 ft | 432 kts | 159° |
| 2026-05-04 15:07 | 47.00466 | 3.45090 | 35058 ft | 432 kts | 159° |
| 2026-05-04 15:07 | 46.98628 | 3.46212 | 35204 ft | 433 kts | 159° |
| 2026-05-04 15:08 | 46.96125 | 3.47742 | 35386 ft | 433 kts | 159° |
| 2026-05-04 15:08 | 46.93341 | 3.49438 | 35587 ft | 434 kts | 160° |
| 2026-05-04 15:08 | 46.90555 | 3.51130 | 35791 ft | 434 kts | 160° |
| 2026-05-04 15:08 | 46.87774 | 3.52816 | 35982 ft | 434 kts | 160° |
| 2026-05-04 15:09 | 46.84972 | 3.54516 | 36165 ft | 435 kts | 160° |
| 2026-05-04 15:09 | 46.81728 | 3.56480 | 36361 ft | 436 kts | 160° |
| 2026-05-04 15:09 | 46.78928 | 3.58169 | 36526 ft | 436 kts | 160° |
| 2026-05-04 15:10 | 46.74461 | 3.61708 | 36858 ft | 439 kts | 144° |
| 2026-05-04 15:10 | 46.72234 | 3.64726 | 36950 ft | 441 kts | 133° |
| 2026-05-04 15:10 | 46.69161 | 3.72495 | 36962 ft | 449 kts | 110° |
| 2026-05-04 15:11 | 46.68355 | 3.76897 | 36962 ft | 450 kts | 106° |
| 2026-05-04 15:11 | 46.66856 | 3.85744 | 36970 ft | 451 kts | 107° |
| 2026-05-04 15:12 | 46.65409 | 3.94193 | 36973 ft | 452 kts | 107° |
| 2026-05-04 15:12 | 46.63884 | 4.03000 | 36973 ft | 451 kts | 107° |
| 2026-05-04 15:13 | 46.62346 | 4.11860 | 36970 ft | 452 kts | 107° |
| 2026-05-04 15:13 | 46.60801 | 4.20720 | 36970 ft | 452 kts | 107° |
| 2026-05-04 15:14 | 46.59247 | 4.29572 | 36974 ft | 452 kts | 107° |
| 2026-05-04 15:14 | 46.57683 | 4.38429 | 36975 ft | 452 kts | 107° |
| 2026-05-04 15:15 | 46.56113 | 4.47272 | 36980 ft | 452 kts | 107° |
| 2026-05-04 15:15 | 46.54538 | 4.56123 | 36982 ft | 453 kts | 107° |
| 2026-05-04 15:16 | 46.52162 | 4.69391 | 36988 ft | 453 kts | 107° |
| 2026-05-04 15:17 | 46.49762 | 4.82673 | 36994 ft | 453 kts | 107° |
| 2026-05-04 15:17 | 46.47340 | 4.95938 | 36992 ft | 453 kts | 107° |
| 2026-05-04 15:18 | 46.45722 | 5.04762 | 36998 ft | 453 kts | 107° |
| 2026-05-04 15:19 | 46.43292 | 5.18014 | 37012 ft | 453 kts | 107° |
| 2026-05-04 15:19 | 46.40854 | 5.31239 | 37015 ft | 453 kts | 107° |
| 2026-05-04 15:20 | 46.39200 | 5.40062 | 37018 ft | 454 kts | 107° |
| 2026-05-04 15:20 | 46.37552 | 5.48905 | 37025 ft | 455 kts | 107° |
| 2026-05-04 15:21 | 46.35911 | 5.57756 | 37036 ft | 456 kts | 107° |
| 2026-05-04 15:22 | 46.33429 | 5.71032 | 37046 ft | 456 kts | 107° |
| 2026-05-04 15:22 | 46.30931 | 5.84239 | 37056 ft | 457 kts | 108° |
| 2026-05-04 15:23 | 46.29238 | 5.93156 | 37059 ft | 457 kts | 108° |
| 2026-05-04 15:23 | 46.27551 | 6.02018 | 37067 ft | 457 kts | 108° |
| 2026-05-04 15:24 | 46.23675 | 6.19470 | 37081 ft | 455 kts | 114° |
| 2026-05-04 15:25 | 46.21333 | 6.27899 | 37094 ft | 455 kts | 114° |
| 2026-05-04 15:26 | 46.17793 | 6.40612 | 37103 ft | 455 kts | 114° |
| 2026-05-04 15:26 | 46.14236 | 6.53309 | 37107 ft | 455 kts | 114° |
| 2026-05-04 15:27 | 46.10666 | 6.65978 | 37096 ft | 454 kts | 114° |
| 2026-05-04 15:28 | 46.07087 | 6.78615 | 37100 ft | 454 kts | 115° |
| 2026-05-04 15:29 | 46.03503 | 6.91218 | 37083 ft | 453 kts | 114° |
| 2026-05-04 15:30 | 45.95465 | 7.20790 | 37073 ft | 458 kts | 102° |
| 2026-05-04 15:31 | 45.93853 | 7.34347 | 37079 ft | 459 kts | 101° |
| 2026-05-04 15:32 | 45.90707 | 7.56818 | 37093 ft | 459 kts | 106° |
| 2026-05-04 15:34 | 45.86783 | 7.78968 | 37105 ft | 458 kts | 105° |
| 2026-05-04 15:34 | 45.84512 | 7.92299 | 37099 ft | 458 kts | 105° |
| 2026-05-04 15:35 | 45.82206 | 8.05596 | 37105 ft | 458 kts | 105° |
| 2026-05-04 15:36 | 45.79900 | 8.18860 | 37097 ft | 457 kts | 105° |
| 2026-05-04 15:36 | 45.78344 | 8.27689 | 37096 ft | 457 kts | 105° |
| 2026-05-04 15:37 | 45.77025 | 8.35146 | 37087 ft | 457 kts | 106° |
| 2026-05-04 15:37 | 45.75726 | 8.42472 | 37085 ft | 457 kts | 106° |
| 2026-05-04 15:38 | 45.74099 | 8.51623 | 37082 ft | 457 kts | 106° |
| 2026-05-04 15:38 | 45.72507 | 8.60504 | 37082 ft | 458 kts | 106° |
| 2026-05-04 15:39 | 45.70919 | 8.69338 | 37092 ft | 458 kts | 106° |
| 2026-05-04 15:39 | 45.69334 | 8.78131 | 35930 ft | 456 kts | 106° |
| 2026-05-04 15:40 | 45.68538 | 8.82523 | 35117 ft | 458 kts | 106° |
| 2026-05-04 15:40 | 45.67785 | 8.86666 | 34265 ft | 462 kts | 106° |
| 2026-05-04 15:40 | 45.66970 | 8.91124 | 33367 ft | 465 kts | 106° |
| 2026-05-04 15:40 | 45.66147 | 8.95604 | 32487 ft | 466 kts | 106° |
| 2026-05-04 15:41 | 45.65324 | 9.00080 | 31586 ft | 467 kts | 106° |
| 2026-05-04 15:41 | 45.64503 | 9.04574 | 30648 ft | 467 kts | 106° |
| 2026-05-04 15:41 | 45.64010 | 9.07265 | 30027 ft | 469 kts | 106° |
| 2026-05-04 15:41 | 45.63181 | 9.11779 | 29028 ft | 469 kts | 106° |
| 2026-05-04 15:42 | 45.62349 | 9.16288 | 27960 ft | 470 kts | 106° |
| 2026-05-04 15:42 | 45.61526 | 9.20731 | 27122 ft | 467 kts | 106° |
| 2026-05-04 15:42 | 45.60704 | 9.25172 | 26353 ft | 461 kts | 106° |
| 2026-05-04 15:42 | 45.59887 | 9.29580 | 25581 ft | 456 kts | 106° |
| 2026-05-04 15:43 | 45.59074 | 9.33929 | 24836 ft | 451 kts | 106° |
| 2026-05-04 15:43 | 45.58280 | 9.38149 | 24113 ft | 447 kts | 106° |
| 2026-05-04 15:43 | 45.57465 | 9.42465 | 23377 ft | 442 kts | 106° |
| 2026-05-04 15:43 | 45.56672 | 9.46675 | 22689 ft | 437 kts | 106° |
| 2026-05-04 15:44 | 45.55813 | 9.50808 | 22022 ft | 433 kts | 111° |
| 2026-05-04 15:44 | 45.54655 | 9.54605 | 21392 ft | 428 kts | 116° |
| 2026-05-04 15:44 | 45.53418 | 9.58383 | 20748 ft | 424 kts | 116° |
| 2026-05-04 15:44 | 45.52150 | 9.62217 | 20111 ft | 420 kts | 116° |
| 2026-05-04 15:45 | 45.51325 | 9.64701 | 19705 ft | 417 kts | 116° |
| 2026-05-04 15:45 | 45.50088 | 9.68427 | 19097 ft | 414 kts | 116° |
| 2026-05-04 15:45 | 45.48861 | 9.72115 | 18507 ft | 410 kts | 116° |
| 2026-05-04 15:45 | 45.47647 | 9.75768 | 17920 ft | 406 kts | 116° |
| 2026-05-04 15:46 | 45.46444 | 9.79397 | 17360 ft | 403 kts | 116° |
| 2026-05-04 15:46 | 45.45257 | 9.82984 | 16801 ft | 399 kts | 116° |
| 2026-05-04 15:46 | 45.44080 | 9.86532 | 16234 ft | 396 kts | 116° |
| 2026-05-04 15:46 | 45.42904 | 9.90069 | 15689 ft | 392 kts | 116° |
| 2026-05-04 15:47 | 45.41941 | 9.92952 | 15223 ft | 389 kts | 117° |
| 2026-05-04 15:47 | 45.40782 | 9.96415 | 14657 ft | 386 kts | 117° |
| 2026-05-04 15:47 | 45.39633 | 9.99847 | 14096 ft | 382 kts | 117° |
| 2026-05-04 15:47 | 45.38495 | 10.03247 | 13529 ft | 380 kts | 116° |
| 2026-05-04 15:48 | 45.37368 | 10.06622 | 12954 ft | 377 kts | 117° |
| 2026-05-04 15:48 | 45.36247 | 10.09975 | 12375 ft | 373 kts | 117° |
| 2026-05-04 15:48 | 45.34033 | 10.16582 | 11169 ft | 366 kts | 117° |
| 2026-05-04 15:49 | 45.32971 | 10.19747 | 10586 ft | 363 kts | 116° |
| 2026-05-04 15:49 | 45.31851 | 10.22895 | 10358 ft | 348 kts | 122° |
| 2026-05-04 15:49 | 45.30441 | 10.25573 | 10294 ft | 329 kts | 133° |
| 2026-05-04 15:49 | 45.28954 | 10.27940 | 10198 ft | 314 kts | 133° |
| 2026-05-04 15:50 | 45.27533 | 10.30214 | 10082 ft | 302 kts | 133° |
| 2026-05-04 15:50 | 45.26164 | 10.32415 | 9904 ft | 294 kts | 133° |
| 2026-05-04 15:50 | 45.24821 | 10.34567 | 9600 ft | 289 kts | 132° |
| 2026-05-04 15:50 | 45.23943 | 10.35975 | 9359 ft | 287 kts | 132° |
| 2026-05-04 15:51 | 45.22621 | 10.38097 | 8980 ft | 286 kts | 132° |
| 2026-05-04 15:51 | 45.21303 | 10.40212 | 8590 ft | 284 kts | 132° |
| 2026-05-04 15:51 | 45.20251 | 10.41905 | 8279 ft | 283 kts | 132° |
| 2026-05-04 15:51 | 45.19675 | 10.42832 | 8105 ft | 282 kts | 132° |
| 2026-05-04 15:52 | 45.18383 | 10.44904 | 7658 ft | 279 kts | 132° |
| 2026-05-04 15:52 | 45.17108 | 10.46946 | 7019 ft | 274 kts | 132° |
| 2026-05-04 15:52 | 45.15870 | 10.48974 | 6437 ft | 268 kts | 126° |
| 2026-05-04 15:52 | 45.15212 | 10.51363 | 5969 ft | 259 kts | 94° |
| 2026-05-04 15:53 | 45.15543 | 10.53791 | 5543 ft | 250 kts | 62° |
| 2026-05-04 15:53 | 45.16650 | 10.55607 | 5114 ft | 240 kts | 40° |
| 2026-05-04 15:53 | 45.17820 | 10.57245 | 4710 ft | 234 kts | 49° |
| 2026-05-04 15:53 | 45.18901 | 10.58939 | 4298 ft | 229 kts | 47° |
| 2026-05-04 15:54 | 45.19971 | 10.60513 | 3962 ft | 214 kts | 46° |
| 2026-05-04 15:54 | 45.20998 | 10.61991 | 3666 ft | 206 kts | 46° |
| 2026-05-04 15:54 | 45.21989 | 10.63417 | 3366 ft | 201 kts | 46° |
| 2026-05-04 15:54 | 45.22968 | 10.64825 | 3075 ft | 199 kts | 46° |
| 2026-05-04 15:55 | 45.23949 | 10.66240 | 2996 ft | 198 kts | 46° |
| 2026-05-04 15:55 | 45.24904 | 10.67618 | 3006 ft | 199 kts | 46° |
| 2026-05-04 15:55 | 45.25874 | 10.69017 | 3013 ft | 199 kts | 46° |
| 2026-05-04 15:55 | 45.26859 | 10.70437 | 3014 ft | 199 kts | 46° |
| 2026-05-04 15:56 | 45.27817 | 10.71822 | 3006 ft | 199 kts | 46° |
| 2026-05-04 15:56 | 45.28802 | 10.73245 | 2933 ft | 200 kts | 46° |
| 2026-05-04 15:56 | 45.29758 | 10.74626 | 2758 ft | 190 kts | 46° |
| 2026-05-04 15:56 | 45.30651 | 10.75918 | 2497 ft | 181 kts | 46° |
| 2026-05-04 15:57 | 45.31518 | 10.77172 | 2258 ft | 174 kts | 46° |
| 2026-05-04 15:57 | 45.32345 | 10.78370 | 2047 ft | 159 kts | 46° |
| 2026-05-04 15:57 | 45.33085 | 10.79441 | 1837 ft | 149 kts | 46° |
| 2026-05-04 15:57 | 45.33799 | 10.80475 | 1642 ft | 144 kts | 46° |
| 2026-05-04 15:58 | 45.34497 | 10.81487 | 1452 ft | 142 kts | 46° |
| 2026-05-04 15:58 | 45.35187 | 10.82492 | 1279 ft | 142 kts | 46° |
| 2026-05-04 15:58 | 45.35880 | 10.83490 | 1096 ft | 141 kts | 46° |
| 2026-05-04 15:58 | 45.36565 | 10.84479 | 985 ft | 140 kts | 47° |
| 2026-05-04 15:59 | 45.37234 | 10.85453 | 1051 ft | 142 kts | 46° |
| 2026-05-04 15:59 | 45.37937 | 10.86476 | 739 ft | 146 kts | 47° |
| 2026-05-04 15:59 | 45.38614 | 10.87464 | 857 ft | 148 kts | 46° |
| 2026-05-04 15:59 | 45.39329 | 10.88497 | 1600 ft | 147 kts | 46° |
| 2026-05-04 16:00 | 45.40061 | 10.89547 | 2309 ft | 157 kts | 46° |
| 2026-05-04 16:00 | 45.40891 | 10.90741 | 2744 ft | 180 kts | 46° |
| 2026-05-04 16:00 | 45.41850 | 10.92129 | 3006 ft | 212 kts | 46° |
| 2026-05-04 16:00 | 45.42895 | 10.93681 | 2963 ft | 217 kts | 52° |
| 2026-05-04 16:01 | 45.43467 | 10.95627 | 2993 ft | 216 kts | 88° |
| 2026-05-04 16:01 | 45.43156 | 10.97679 | 3009 ft | 214 kts | 123° |
| 2026-05-04 16:01 | 45.42234 | 10.99321 | 3055 ft | 212 kts | 137° |
| 2026-05-04 16:01 | 45.41089 | 11.00654 | 3299 ft | 219 kts | 146° |
| 2026-05-04 16:02 | 45.39699 | 11.01357 | 3186 ft | 212 kts | 180° |
| 2026-05-04 16:02 | 45.38306 | 11.00905 | 3097 ft | 211 kts | 212° |
| 2026-05-04 16:02 | 45.36093 | 10.98161 | 3011 ft | 214 kts | 223° |
| 2026-05-04 16:03 | 45.35030 | 10.96691 | 3006 ft | 213 kts | 224° |
| 2026-05-04 16:03 | 45.33977 | 10.95208 | 3006 ft | 214 kts | 224° |
| 2026-05-04 16:03 | 45.32923 | 10.93721 | 3005 ft | 213 kts | 224° |
| 2026-05-04 16:03 | 45.31868 | 10.92235 | 3006 ft | 213 kts | 224° |
| 2026-05-04 16:04 | 45.30819 | 10.90741 | 3006 ft | 213 kts | 224° |
| 2026-05-04 16:04 | 45.28713 | 10.87773 | 3005 ft | 214 kts | 224° |
| 2026-05-04 16:04 | 45.27657 | 10.86291 | 3009 ft | 213 kts | 224° |
| 2026-05-04 16:05 | 45.26617 | 10.84828 | 3006 ft | 213 kts | 224° |
| 2026-05-04 16:05 | 45.25565 | 10.83350 | 3007 ft | 213 kts | 224° |
| 2026-05-04 16:05 | 45.24458 | 10.79562 | 3010 ft | 215 kts | 263° |
| 2026-05-04 16:06 | 45.24332 | 10.77445 | 3006 ft | 216 kts | 266° |
| 2026-05-04 16:06 | 45.25679 | 10.72409 | 3001 ft | 202 kts | 323° |
| 2026-05-04 16:07 | 45.27418 | 10.71785 | 2991 ft | 198 kts | 16° |
| 2026-05-04 16:07 | 45.30216 | 10.75300 | 2616 ft | 176 kts | 46° |
| 2026-05-04 16:08 | 45.31072 | 10.76532 | 2380 ft | 175 kts | 46° |
| 2026-05-04 16:08 | 45.33543 | 10.80107 | 1711 ft | 159 kts | 46° |
| 2026-05-04 16:09 | 45.34995 | 10.82210 | 1317 ft | 143 kts | 46° |
| 2026-05-04 16:09 | 45.36371 | 10.84191 | 929 ft | 139 kts | 46° |
| 2026-05-04 16:10 | 45.37720 | 10.86160 | 580 ft | 139 kts | 46° |
| 2026-05-04 16:11 | 45.39608 | 10.88911 | 240 ft | 89 kts | 46° |
| 2026-05-04 16:11 | 45.39928 | 10.89373 | 242 ft | 50 kts | 46° |
| 2026-05-04 16:12 | 45.40295 | 10.89988 | 246 ft | 14 kts | 81° |
| 2026-05-04 16:12 | 45.40330 | 10.90265 | 242 ft | 8 kts | 95° |
| 2026-05-04 16:13 | 45.40271 | 10.90359 | 242 ft | 5 kts | 132° |
| 2026-05-04 16:13 | 45.40234 | 10.90428 | 242 ft | 4 kts | 129° |
| 2026-05-04 16:14 | 45.40210 | 10.90463 | 242 ft | 1 kts | 135° |
| 2026-05-04 16:14 | 45.40209 | 10.90465 | 242 ft | 0 kts | 135° |